Time;durP1;ratioP1;P1;durP2;ratioP2;P2;SDS_P1;SDS_P2;PMS_P1;PMS_P2;Temp;Humidity;BMP_temperature;BMP_pressure;BME280_temperature;BME280_humidity;BME280_pressure;Samples;Min_cycle;Max_cycle;Signal;HPM_P1;HPM_P2
2022/03/05 00:00:43;;;;;;;31.60;16.70;;;;;;;-0.11;80.38;100512.59;5045794;28;20233;-60
2022/03/05 00:03:09;;;;;;;30.10;16.70;;;;;;;-0.08;79.54;100512.59;5040442;28;20714;-60
2022/03/05 00:05:34;;;;;;;26.57;15.00;;;;;;;-0.14;80.16;100510.09;5052661;28;20189;-60
2022/03/05 00:07:59;;;;;;;30.37;16.57;;;;;;;-0.16;80.08;100517.69;5050778;28;20227;-60
2022/03/05 00:10:25;;;;;;;30.57;15.53;;;;;;;-0.23;79.93;100501.69;5046148;28;20251;-61
2022/03/05 00:12:51;;;;;;;30.17;15.87;;;;;;;-0.28;80.61;100498.34;5065307;28;20261;-60
2022/03/05 00:15:18;;;;;;;31.27;15.73;;;;;;;-0.22;80.86;100500.84;5044307;28;20256;-65
2022/03/05 00:17:44;;;;;;;28.93;16.50;;;;;;;-0.22;80.62;100500.84;5065486;28;20178;-61
2022/03/05 00:20:10;;;;;;;30.53;16.40;;;;;;;-0.34;80.48;100508.47;5041816;28;20208;-60
2022/03/05 00:22:35;;;;;;;30.47;16.73;;;;;;;-0.25;80.79;100507.59;5066746;28;20172;-60
2022/03/05 00:25:01;;;;;;;27.53;15.30;;;;;;;-0.29;80.77;100503.41;5052341;28;20609;-61
2022/03/05 00:27:26;;;;;;;29.67;16.00;;;;;;;-0.35;81.09;100501.72;5051680;28;20178;-60
2022/03/05 00:29:52;;;;;;;27.00;15.63;;;;;;;-0.37;80.99;100499.22;5052784;28;20316;-60
2022/03/05 00:32:18;;;;;;;27.10;14.93;;;;;;;-0.45;81.45;100500.09;5028368;28;20243;-60
2022/03/05 00:34:44;;;;;;;30.77;16.40;;;;;;;-0.44;81.43;100507.66;5070184;28;20538;-62
2022/03/05 00:37:10;;;;;;;29.97;15.30;;;;;;;-0.43;81.70;100506.00;5063491;28;20231;-60
2022/03/05 00:39:35;;;;;;;27.53;16.07;;;;;;;-0.40;81.61;100508.50;5051664;28;20204;-59
2022/03/05 00:42:01;;;;;;;26.97;14.43;;;;;;;-0.50;81.93;100508.53;5060333;28;20684;-59
2022/03/05 00:44:26;;;;;;;28.90;15.67;;;;;;;-0.54;82.34;100504.31;5052660;28;20176;-60
2022/03/05 00:46:51;;;;;;;26.13;15.60;;;;;;;-0.58;82.68;100510.22;5051961;28;20250;-59
2022/03/05 00:49:17;;;;;;;32.70;16.87;;;;;;;-0.66;83.29;100506.84;5050100;28;20268;-61
2022/03/05 00:51:42;;;;;;;26.67;14.73;;;;;;;-0.66;83.47;100517.81;5067866;28;20235;-60
2022/03/05 00:54:08;;;;;;;28.87;15.67;;;;;;;-0.64;83.20;100512.75;5074963;28;20222;-59
2022/03/05 00:56:34;;;;;;;29.90;16.00;;;;;;;-0.64;83.56;100507.72;5072051;28;20578;-61
2022/03/05 00:58:59;;;;;;;25.47;15.33;;;;;;;-0.62;83.29;100511.09;5069783;28;20268;-59
2022/03/05 01:01:25;;;;;;;27.23;15.27;;;;;;;-0.57;83.04;100506.00;5061083;28;20260;-59
2022/03/05 01:03:50;;;;;;;29.97;15.93;;;;;;;-0.59;83.29;100508.53;5071575;28;20274;-59
2022/03/05 01:06:15;;;;;;;28.37;15.83;;;;;;;-0.68;83.15;100511.91;5070433;28;20203;-60
2022/03/05 01:08:41;;;;;;;27.27;15.50;;;;;;;-0.67;83.68;100507.69;5071230;28;20285;-59
2022/03/05 01:11:08;;;;;;;28.23;15.33;;;;;;;-0.67;83.76;100510.22;5061296;28;20297;-59
2022/03/05 01:13:34;;;;;;;28.00;14.73;;;;;;;-0.65;83.36;100513.59;5062758;28;20209;-60
2022/03/05 01:15:59;;;;;;;32.80;16.97;;;;;;;-0.68;83.44;100509.41;5070559;28;20210;-60
2022/03/05 01:18:25;;;;;;;30.80;16.40;;;;;;;-0.59;83.37;100512.75;5071200;28;20207;-60
2022/03/05 01:20:50;;;;;;;26.73;14.07;;;;;;;-0.67;83.39;100515.28;5060751;28;20249;-60
2022/03/05 01:23:15;;;;;;;28.80;15.23;;;;;;;-0.72;83.78;100512.78;5060201;28;20187;-59
2022/03/05 01:25:41;;;;;;;29.10;14.77;;;;;;;-0.68;83.92;100508.56;5071354;28;20670;-59
2022/03/05 01:28:06;;;;;;;27.77;14.63;;;;;;;-0.78;83.87;100504.34;5070643;28;20211;-60
2022/03/05 01:30:31;;;;;;;27.90;15.27;;;;;;;-0.76;84.35;100508.56;5065292;28;20234;-60
2022/03/05 01:32:57;;;;;;;27.60;15.60;;;;;;;-0.57;83.68;100504.31;5079438;28;20191;-60
2022/03/05 01:35:22;;;;;;;27.53;15.37;;;;;;;-0.64;82.97;100497.59;5065602;28;20241;-61
2022/03/05 01:37:47;;;;;;;30.13;16.13;;;;;;;-0.68;83.49;100506.03;5063868;28;20302;-59
2022/03/05 01:40:13;;;;;;;29.40;16.27;;;;;;;-0.68;83.44;100501.81;5046698;28;20706;-59
2022/03/05 01:42:38;;;;;;;26.93;15.90;;;;;;;-0.71;83.96;100504.38;5054303;28;20223;-61
2022/03/05 01:45:04;;;;;;;29.27;16.60;;;;;;;-0.75;84.37;100497.63;5055537;28;20596;-60
2022/03/05 01:47:29;;;;;;;30.77;16.30;;;;;;;-0.76;84.06;100493.41;5053372;28;20596;-59
2022/03/05 01:49:55;;;;;;;25.97;15.20;;;;;;;-0.89;84.31;100492.59;5061052;28;20180;-60
2022/03/05 01:52:20;;;;;;;31.87;15.90;;;;;;;-0.84;84.45;100487.53;5057549;28;20335;-60
2022/03/05 01:54:46;;;;;;;26.90;15.60;;;;;;;-0.84;84.62;100492.59;5054256;28;20258;-60
2022/03/05 01:57:12;;;;;;;27.77;16.67;;;;;;;-0.92;85.01;100492.56;5055202;28;20172;-61
2022/03/05 01:59:38;;;;;;;27.90;15.43;;;;;;;-0.98;85.37;100493.44;5054685;28;20188;-59
2022/03/05 02:02:04;;;;;;;34.33;16.47;;;;;;;-0.91;85.18;100494.25;5046802;28;20594;-59
2022/03/05 02:04:29;;;;;;;27.57;15.53;;;;;;;-0.91;85.05;100491.72;5054622;28;20265;-60
2022/03/05 02:06:54;;;;;;;25.33;15.30;;;;;;;-0.94;85.23;100494.28;5065849;28;20257;-60
2022/03/05 02:09:20;;;;;;;28.33;16.10;;;;;;;-1.00;85.51;100499.34;5065650;28;20634;-60
2022/03/05 02:11:45;;;;;;;31.03;16.77;;;;;;;-1.10;85.75;100493.44;5066599;28;20241;-59
2022/03/05 02:14:10;;;;;;;28.70;15.07;;;;;;;-1.13;86.40;100493.44;5077064;28;20183;-59
2022/03/05 02:16:36;;;;;;;28.33;16.23;;;;;;;-1.12;86.40;100494.28;5074817;28;20177;-61
2022/03/05 02:19:04;;;;;;;26.43;14.67;;;;;;;-1.05;86.43;100493.44;5073906;28;20233;-61
2022/03/05 02:21:30;;;;;;;28.87;16.17;;;;;;;-0.96;85.98;100492.59;5066053;28;20230;-60
2022/03/05 02:23:56;;;;;;;27.73;15.43;;;;;;;-1.02;86.03;100489.25;5073576;28;20617;-59
2022/03/05 02:26:22;;;;;;;28.70;15.63;;;;;;;-1.11;86.44;100485.88;5070004;28;20266;-59
2022/03/05 02:28:48;;;;;;;25.53;14.53;;;;;;;-1.12;86.74;100489.22;5064024;28;20187;-59
2022/03/05 02:31:14;;;;;;;29.13;15.87;;;;;;;-1.16;86.78;100484.16;5066445;28;20313;-60
2022/03/05 02:33:40;;;;;;;29.57;16.20;;;;;;;-1.04;86.68;100492.56;5072920;28;20680;-59
2022/03/05 02:36:06;;;;;;;28.40;15.90;;;;;;;-0.99;86.28;100489.22;5066521;28;20178;-62
2022/03/05 02:38:31;;;;;;;26.03;15.50;;;;;;;-1.02;86.28;100488.38;5064579;28;20223;-59
2022/03/05 02:40:56;;;;;;;27.93;15.10;;;;;;;-1.05;85.91;100491.75;5057374;28;20237;-60
2022/03/05 02:43:22;;;;;;;26.63;14.90;;;;;;;-0.95;86.09;100494.28;5062751;28;20191;-59
2022/03/05 02:45:49;;;;;;;29.60;15.13;;;;;;;-1.17;85.89;100487.53;5069699;28;20190;-59
2022/03/05 02:48:16;;;;;;;28.17;16.00;;;;;;;-1.11;86.27;100493.44;5053823;28;20171;-58
2022/03/05 02:50:43;;;;;;;33.27;16.87;;;;;;;-1.07;86.26;100490.91;5045647;28;20502;-59
2022/03/05 02:53:08;;;;;;;29.87;15.33;;;;;;;-1.09;86.39;100497.66;5052997;28;20430;-61
2022/03/05 02:55:34;;;;;;;27.87;15.40;;;;;;;-1.08;86.35;100491.75;5054092;28;20417;-60
2022/03/05 02:58:00;;;;;;;28.93;15.47;;;;;;;-1.12;87.01;100486.72;5053605;28;20185;-59
2022/03/05 03:00:25;;;;;;;28.73;15.57;;;;;;;-1.17;87.25;100492.59;5046976;28;20261;-59
2022/03/05 03:02:50;;;;;;;33.07;16.63;;;;;;;-1.34;88.03;100491.75;5066485;28;20317;-59
2022/03/05 03:05:17;;;;;;;29.23;16.33;;;;;;;-1.36;88.46;100494.25;5051950;28;20183;-59
2022/03/05 03:07:43;;;;;;;31.57;16.80;;;;;;;-1.44;88.38;100492.56;5064288;28;20718;-60
2022/03/05 03:10:10;;;;;;;32.90;16.67;;;;;;;-1.46;89.11;100490.06;5055244;28;20442;-61
2022/03/05 03:12:35;;;;;;;31.00;16.40;;;;;;;-1.32;88.55;100490.06;5088464;28;20205;-58
2022/03/05 03:15:01;;;;;;;29.23;16.30;;;;;;;-1.24;87.95;100495.13;5073904;28;20722;-60
2022/03/05 03:17:27;;;;;;;29.00;15.97;;;;;;;-1.26;88.26;100485.03;5071729;28;20178;-61
2022/03/05 03:19:52;;;;;;;30.17;15.57;;;;;;;-1.27;88.13;100490.91;5073472;28;20431;-59
2022/03/05 03:22:18;;;;;;;30.87;15.93;;;;;;;-1.20;87.82;100489.25;5079351;28;20225;-58
2022/03/05 03:24:43;;;;;;;29.27;15.83;;;;;;;-1.39;88.22;100495.94;5073032;28;20600;-59
2022/03/05 03:27:09;;;;;;;31.50;17.30;;;;;;;-1.33;88.45;100494.28;5073558;28;20205;-61
2022/03/05 03:29:34;;;;;;;30.80;15.40;;;;;;;-1.23;88.58;100492.59;5071241;28;20956;-61
2022/03/05 03:32:00;;;;;;;29.10;15.83;;;;;;;-1.19;88.24;100498.47;5078922;28;20256;-59
2022/03/05 03:34:26;;;;;;;25.53;14.40;;;;;;;-1.42;88.23;100495.97;5073695;28;20176;-59
2022/03/05 03:36:51;;;;;;;28.83;15.90;;;;;;;-1.40;88.91;100504.34;5067983;28;20248;-58
2022/03/05 03:39:16;;;;;;;29.73;16.70;;;;;;;-1.45;89.10;100504.38;5062921;28;20199;-59
2022/03/05 03:41:42;;;;;;;32.50;16.30;;;;;;;-1.39;89.01;100501.84;5064067;28;20226;-59
2022/03/05 03:44:07;;;;;;;27.57;15.80;;;;;;;-1.39;89.02;100501.00;5073127;28;20172;-59
2022/03/05 03:46:33;;;;;;;32.03;16.60;;;;;;;-1.37;89.01;100501.84;5073160;28;20247;-59
2022/03/05 03:48:58;;;;;;;29.13;15.77;;;;;;;-1.34;88.91;100499.31;5072411;28;20265;-59
2022/03/05 03:51:23;;;;;;;29.10;16.37;;;;;;;-1.35;89.02;100501.00;5073490;28;20265;-59
2022/03/05 03:53:49;;;;;;;31.03;16.47;;;;;;;-1.41;89.08;100501.00;5077883;28;20170;-61
2022/03/05 03:56:14;;;;;;;26.10;15.50;;;;;;;-1.54;89.49;100509.38;5072184;28;20186;-61
2022/03/05 03:58:40;;;;;;;32.47;16.23;;;;;;;-1.54;90.09;100507.72;5059028;28;20182;-61
2022/03/05 04:01:05;;;;;;;28.27;15.53;;;;;;;-1.50;90.13;100506.00;5040382;27;20228;-59
2022/03/05 04:03:31;;;;;;;27.63;15.23;;;;;;;-1.52;90.08;100505.19;5059158;28;20187;-59
2022/03/05 04:05:56;;;;;;;33.40;15.67;;;;;;;-1.57;90.14;100501.81;5052112;28;20203;-59
2022/03/05 04:11:05;;;;;;;28.00;16.43;;;;;;;-1.49;89.84;100508.56;5063566;28;20259;-59
2022/03/05 04:13:30;;;;;;;31.07;16.20;;;;;;;-1.49;90.26;100505.19;5059214;28;20456;-60
2022/03/05 04:15:56;;;;;;;34.47;17.03;;;;;;;-1.54;89.88;100504.34;5056783;28;20221;-60
2022/03/05 04:18:22;;;;;;;29.73;16.40;;;;;;;-1.54;90.54;100507.72;5060111;28;20179;-59
2022/03/05 04:20:47;;;;;;;29.77;16.37;;;;;;;-1.64;90.28;100503.47;5054553;28;20237;-59
2022/03/05 04:23:12;;;;;;;24.53;14.57;;;;;;;-1.72;90.35;100506.00;5079079;28;20181;-59
2022/03/05 04:25:37;;;;;;;30.83;16.40;;;;;;;-1.74;90.86;100507.66;5072040;28;20216;-60
2022/03/05 04:28:03;;;;;;;31.67;16.63;;;;;;;-1.83;91.41;100508.47;5072190;28;20239;-59
2022/03/05 04:30:29;;;;;;;30.10;16.97;;;;;;;-1.88;91.93;100509.31;5041067;28;20716;-61
2022/03/05 04:32:54;;;;;;;32.97;16.47;;;;;;;-2.09;91.99;100510.06;5072042;28;20185;-61
2022/03/05 04:35:19;;;;;;;30.67;16.27;;;;;;;-2.14;92.82;100510.06;5072155;28;20181;-59
2022/03/05 04:37:46;;;;;;;32.33;17.20;;;;;;;-2.14;93.23;100513.41;5068431;28;20229;-59
2022/03/05 04:40:11;;;;;;;28.23;16.73;;;;;;;-2.19;93.25;100514.22;5053136;28;20193;-59
2022/03/05 04:42:37;;;;;;;35.00;17.03;;;;;;;-2.20;93.45;100504.97;5086205;28;20979;-60
2022/03/05 04:45:06;;;;;;;32.00;17.00;;;;;;;-2.25;94.57;100510.00;5072052;28;20221;-61
2022/03/05 04:47:31;;;;;;;30.27;16.87;;;;;;;-2.20;94.80;100505.81;5071562;28;20183;-60
2022/03/05 04:49:57;;;;;;;37.63;17.63;;;;;;;-2.19;94.82;100506.66;5072116;28;20748;-59
2022/03/05 04:52:22;;;;;;;32.40;18.43;;;;;;;-2.13;95.49;100512.56;5077758;28;20259;-60
2022/03/05 04:54:47;;;;;;;35.97;18.13;;;;;;;-2.19;96.03;100506.66;5072043;28;20739;-59
2022/03/05 04:57:13;;;;;;;39.23;18.70;;;;;;;-2.03;96.44;100512.63;5071945;28;20269;-59
2022/03/05 04:59:38;;;;;;;41.40;18.97;;;;;;;-1.99;95.90;100509.25;5071300;28;20313;-60
2022/03/05 05:02:03;;;;;;;37.33;19.20;;;;;;;-2.04;95.57;100510.94;5060591;28;20316;-59
2022/03/05 05:04:29;;;;;;;35.23;18.70;;;;;;;-1.96;96.03;100517.69;5071919;28;20548;-60
2022/03/05 05:06:54;;;;;;;37.30;18.17;;;;;;;-2.03;95.48;100513.44;5070852;28;20202;-59
2022/03/05 05:09:20;;;;;;;35.77;18.63;;;;;;;-1.92;95.38;100520.19;5071155;28;20177;-59
2022/03/05 05:11:45;;;;;;;33.73;18.97;;;;;;;-1.92;95.10;100526.09;5061002;28;20212;-58
2022/03/05 05:14:13;;;;;;;34.37;18.93;;;;;;;-1.95;95.18;100526.06;5071478;28;20177;-60
2022/03/05 05:16:38;;;;;;;34.93;18.03;;;;;;;-1.96;94.98;100535.34;5070183;28;20170;-59
2022/03/05 05:21:48;;;;;;;36.77;18.63;;;;;;;-2.00;95.95;100541.22;5063855;28;20333;-59
2022/03/05 05:24:13;;;;;;;29.47;16.50;;;;;;;-2.02;95.54;100539.50;5071605;28;20443;-60
2022/03/05 05:26:38;;;;;;;34.00;18.47;;;;;;;-1.97;95.90;100542.91;5071440;28;20193;-60
2022/03/05 05:29:04;;;;;;;37.30;19.13;;;;;;;-1.98;95.49;100544.56;5070912;28;20178;-60
2022/03/05 05:31:29;;;;;;;31.53;18.23;;;;;;;-2.02;95.88;100545.41;5060506;28;20332;-59
2022/03/05 05:33:54;;;;;;;36.23;19.87;;;;;;;-1.88;95.59;100545.44;5071228;28;20250;-60
2022/03/05 05:36:20;;;;;;;33.57;18.50;;;;;;;-1.93;95.73;100541.22;5071507;28;20181;-60
2022/03/05 05:38:45;;;;;;;35.90;19.63;;;;;;;-1.93;95.63;100547.13;5069427;28;20296;-60
2022/03/05 05:41:12;;;;;;;31.93;19.27;;;;;;;-2.02;96.17;100547.91;5062616;28;20327;-62
2022/03/05 05:43:38;;;;;;;33.17;19.60;;;;;;;-1.91;96.15;100544.59;5074625;28;20186;-59
2022/03/05 05:46:03;;;;;;;38.90;18.97;;;;;;;-1.89;95.74;100546.28;5050200;28;20533;-59
2022/03/05 05:48:29;;;;;;;36.23;19.40;;;;;;;-1.91;95.87;100547.97;5050982;28;20236;-59
2022/03/05 05:50:54;;;;;;;36.43;19.97;;;;;;;-1.91;95.33;100539.53;5048241;28;20680;-60
2022/03/05 05:53:19;;;;;;;34.17;20.07;;;;;;;-2.00;95.86;100551.28;5059891;28;20170;-60
2022/03/05 05:55:44;;;;;;;35.37;19.63;;;;;;;-2.05;96.33;100544.53;5051313;28;20174;-59
2022/03/05 05:58:10;;;;;;;46.27;19.67;;;;;;;-2.03;96.22;100547.91;5050638;28;20660;-60
2022/03/05 06:00:35;;;;;;;39.70;20.03;;;;;;;-1.90;96.51;100552.16;5045567;28;20308;-60
2022/03/05 06:03:00;;;;;;;36.57;18.53;;;;;;;-1.95;95.84;100556.34;5062590;28;20215;-60
2022/03/05 06:05:26;;;;;;;35.43;20.67;;;;;;;-1.99;96.33;100549.59;5049666;28;20667;-59
2022/03/05 06:07:51;;;;;;;32.97;18.80;;;;;;;-1.81;96.24;100561.44;5051179;28;20581;-60
2022/03/05 06:10:16;;;;;;;34.70;18.97;;;;;;;-2.00;96.12;100556.34;5047035;28;20315;-59
2022/03/05 06:12:44;;;;;;;35.87;19.90;;;;;;;-1.92;96.20;100563.94;5069990;28;20592;-59
2022/03/05 06:15:10;;;;;;;40.27;19.80;;;;;;;-1.83;95.99;100565.66;5071410;28;20632;-59
2022/03/05 06:17:36;;;;;;;31.53;18.87;;;;;;;-1.76;95.74;100561.44;5073423;28;20507;-59
2022/03/05 06:20:01;;;;;;;33.37;19.00;;;;;;;-1.72;95.03;100564.00;5071685;28;20499;-60
2022/03/05 06:22:28;;;;;;;36.30;20.43;;;;;;;-1.74;95.14;100559.78;5062939;28;20213;-60
2022/03/05 06:24:53;;;;;;;36.03;20.57;;;;;;;-1.77;95.14;100568.19;5074127;28;20196;-59
2022/03/05 06:27:18;;;;;;;36.57;19.70;;;;;;;-1.60;94.99;100574.97;5072924;28;20466;-60
2022/03/05 06:29:43;;;;;;;42.53;20.63;;;;;;;-1.50;94.29;100571.63;5073084;28;20652;-60
2022/03/05 06:32:09;;;;;;;33.93;20.10;;;;;;;-1.46;94.15;100579.22;5079333;28;20220;-61
2022/03/05 06:34:34;;;;;;;34.80;20.53;;;;;;;-1.62;93.55;100583.38;5072945;28;20248;-60
2022/03/05 06:37:02;;;;;;;35.47;20.90;;;;;;;-1.56;94.54;100585.06;5074509;28;20185;-60
2022/03/05 06:39:28;;;;;;;39.40;21.37;;;;;;;-1.37;94.29;100585.97;5072077;28;20275;-59
2022/03/05 06:41:53;;;;;;;34.37;20.93;;;;;;;-1.47;93.85;100589.31;5077526;28;20290;-60
2022/03/05 06:44:19;;;;;;;33.23;19.43;;;;;;;-1.26;93.41;100596.09;5056938;28;20606;-61
2022/03/05 06:46:44;;;;;;;33.13;19.80;;;;;;;-1.20;92.94;100597.78;5059491;28;20208;-60
2022/03/05 06:49:09;;;;;;;35.50;20.80;;;;;;;-0.96;92.56;100606.25;5058937;28;20186;-60
2022/03/05 06:51:35;;;;;;;33.87;20.07;;;;;;;-0.76;91.35;100604.56;5055644;28;20268;-60
2022/03/05 06:54:00;;;;;;;34.80;19.47;;;;;;;-0.12;89.95;100590.16;5057685;28;20175;-60
2022/03/05 06:56:25;;;;;;;36.23;19.83;;;;;;;0.10;85.50;100596.00;5054119;28;20176;-60
2022/03/05 06:58:50;;;;;;;31.50;19.43;;;;;;;0.88;81.83;100593.94;5061212;28;20188;-61
2022/03/05 07:01:16;;;;;;;29.63;18.83;;;;;;;2.53;74.79;100594.00;5066080;28;20223;-66
2022/03/05 07:03:41;;;;;;;28.40;18.27;;;;;;;3.28;65.43;100601.38;5073434;28;20260;-61
2022/03/05 07:06:07;;;;;;;30.00;18.40;;;;;;;3.00;65.06;100596.72;5061586;28;20248;-60
2022/03/05 07:08:32;;;;;;;26.97;17.27;;;;;;;2.71;65.85;100597.16;5053023;28;20661;-60
2022/03/05 07:10:57;;;;;;;26.33;17.10;;;;;;;1.94;68.97;100604.84;5050598;28;20238;-59
2022/03/05 07:13:23;;;;;;;28.67;18.50;;;;;;;2.52;67.48;100599.09;5061944;28;20562;-59
2022/03/05 07:15:48;;;;;;;26.20;17.40;;;;;;;2.94;64.96;100594.28;5063377;28;20216;-59
2022/03/05 07:18:13;;;;;;;27.57;18.27;;;;;;;2.96;63.79;100596.78;5071637;28;20203;-60
2022/03/05 07:20:38;;;;;;;28.90;18.67;;;;;;;2.85;63.87;100604.56;5063054;28;20296;-60
2022/03/05 07:23:04;;;;;;;25.60;17.77;;;;;;;3.15;62.69;100603.28;5063946;28;20184;-60
2022/03/05 07:25:36;;;;;;;26.30;17.80;;;;;;;3.53;61.33;100601.78;5056847;28;20652;-62
2022/03/05 07:28:07;;;;;;;27.70;18.23;;;;;;;3.00;61.90;100604.34;5052737;28;20182;-60
2022/03/05 07:30:32;;;;;;;23.93;16.50;;;;;;;2.64;63.58;100606.56;5045951;28;20229;-59
2022/03/05 07:32:57;;;;;;;24.13;16.77;;;;;;;3.58;60.78;100598.34;5065688;28;20184;-60
2022/03/05 07:35:23;;;;;;;26.20;17.73;;;;;;;3.64;60.15;100605.84;5052926;28;20188;-60
2022/03/05 07:37:48;;;;;;;22.67;17.27;;;;;;;3.58;60.74;100608.50;5053042;28;20233;-59
2022/03/05 07:40:13;;;;;;;22.80;17.20;;;;;;;3.61;59.58;100609.31;5059438;28;20556;-60
2022/03/05 07:42:39;;;;;;;23.83;16.93;;;;;;;3.15;60.24;100608.34;5082455;28;20663;-61
2022/03/05 07:45:05;;;;;;;25.07;17.87;;;;;;;3.03;62.05;100617.00;5052711;28;20178;-59
2022/03/05 07:47:31;;;;;;;24.50;17.77;;;;;;;2.47;64.07;100608.47;5059061;28;20212;-60
2022/03/05 07:49:56;;;;;;;25.30;18.30;;;;;;;1.97;66.28;100619.19;5059311;28;20273;-59
2022/03/05 07:52:21;;;;;;;27.20;16.23;;;;;;;1.71;67.83;100629.59;5057712;28;20225;-60
2022/03/05 07:54:46;;;;;;;27.63;17.93;;;;;;;1.21;70.98;100629.19;5052655;28;20249;-60
2022/03/05 07:57:12;;;;;;;26.30;18.17;;;;;;;0.95;72.73;100622.59;5060407;28;20190;-60
2022/03/05 07:59:37;;;;;;;26.43;17.37;;;;;;;0.99;73.45;100621.72;5052332;28;20192;-60
2022/03/05 08:02:03;;;;;;;24.13;17.03;;;;;;;1.26;72.25;100633.34;5047657;28;20688;-60
2022/03/05 08:04:28;;;;;;;27.67;17.60;;;;;;;1.24;71.93;100636.75;5052883;28;20273;-60
2022/03/05 08:06:53;;;;;;;26.17;17.90;;;;;;;0.94;73.13;100631.03;5052537;28;20754;-60
2022/03/05 08:09:19;;;;;;;26.70;17.77;;;;;;;0.80;74.50;100641.25;5051996;28;20182;-59
2022/03/05 08:11:44;;;;;;;29.87;17.90;;;;;;;0.67;74.87;100643.03;5064412;28;20273;-61
2022/03/05 08:14:09;;;;;;;24.17;16.57;;;;;;;0.70;75.01;100640.47;5071809;28;20181;-60
2022/03/05 08:16:35;;;;;;;27.97;18.37;;;;;;;0.90;75.14;100635.28;5073871;28;20223;-61
2022/03/05 08:19:00;;;;;;;27.93;18.13;;;;;;;1.04;74.21;100634.34;5062526;28;20181;-60
2022/03/05 08:21:26;;;;;;;27.10;18.07;;;;;;;0.99;73.46;100646.22;5052008;28;20224;-60
2022/03/05 08:23:52;;;;;;;25.07;18.20;;;;;;;0.97;73.67;100643.69;5056864;28;20682;-59
2022/03/05 08:26:18;;;;;;;25.63;17.90;;;;;;;1.04;73.67;100632.69;5052658;28;20202;-59
2022/03/05 08:28:44;;;;;;;25.03;17.30;;;;;;;0.86;74.16;100627.72;5050870;28;20180;-59
2022/03/05 08:31:12;;;;;;;27.17;17.83;;;;;;;0.88;73.48;100634.47;5029272;28;20224;-60
2022/03/05 08:33:38;;;;;;;29.00;17.80;;;;;;;0.93;73.85;100637.81;5049623;28;20269;-61
2022/03/05 08:36:05;;;;;;;28.47;18.10;;;;;;;0.80;73.52;100633.66;5050556;28;20181;-60
2022/03/05 08:38:34;;;;;;;25.80;18.13;;;;;;;0.78;74.04;100640.41;5055519;28;20225;-61
2022/03/05 08:41:01;;;;;;;27.20;17.57;;;;;;;0.71;75.31;100636.22;5048691;28;20267;-61
2022/03/05 08:43:27;;;;;;;27.73;18.33;;;;;;;0.85;75.02;100639.53;5055734;28;20181;-60
2022/03/05 08:45:53;;;;;;;25.10;16.23;;;;;;;0.91;74.72;100641.19;5050223;28;20204;-60
2022/03/05 08:48:18;;;;;;;27.77;18.53;;;;;;;0.93;74.73;100644.56;5052554;28;20256;-60
2022/03/05 08:50:43;;;;;;;30.93;20.63;;;;;;;1.15;73.56;100640.19;5047540;28;20266;-60
2022/03/05 08:53:09;;;;;;;28.80;21.63;;;;;;;1.16;72.58;100644.41;5061311;28;20483;-60
2022/03/05 08:55:34;;;;;;;28.30;19.60;;;;;;;1.16;72.87;100641.03;5051465;28;20189;-62
2022/03/05 08:58:00;;;;;;;29.50;18.33;;;;;;;1.16;72.52;100635.97;5052663;28;20518;-60
2022/03/05 09:00:26;;;;;;;30.53;19.90;;;;;;;1.15;73.02;100637.66;5044146;28;20300;-61
2022/03/05 09:02:51;;;;;;;28.23;18.87;;;;;;;1.20;72.99;100640.16;5055079;28;20672;-60
2022/03/05 09:05:17;;;;;;;28.30;17.70;;;;;;;1.45;71.88;100643.34;5049252;28;20268;-59
2022/03/05 09:07:43;;;;;;;25.00;17.40;;;;;;;1.52;70.72;100642.44;5064018;28;20169;-60
2022/03/05 09:10:10;;;;;;;27.47;17.83;;;;;;;1.60;69.42;100650.84;5063689;28;20268;-60
2022/03/05 09:12:36;;;;;;;27.57;18.67;;;;;;;1.75;69.18;100649.84;5085368;28;20233;-60
2022/03/05 09:15:04;;;;;;;27.37;17.60;;;;;;;1.99;67.94;100642.84;5071456;28;20181;-60
2022/03/05 09:17:29;;;;;;;26.30;18.07;;;;;;;3.13;64.40;100634.66;5069876;28;20744;-60
2022/03/05 09:19:54;;;;;;;25.23;17.43;;;;;;;4.14;58.51;100634.63;5071731;28;20204;-61
2022/03/05 09:22:20;;;;;;;30.03;17.27;;;;;;;5.01;54.43;100628.56;5060460;28;20361;-60
2022/03/05 09:24:46;;;;;;;25.27;17.40;;;;;;;6.04;51.66;100626.91;5071638;28;20169;-61
2022/03/05 09:27:11;;;;;;;27.23;18.27;;;;;;;7.51;47.75;100619.91;5071322;28;20278;-59
2022/03/05 09:29:36;;;;;;;27.40;18.50;;;;;;;7.90;46.61;100616.03;5070911;28;20203;-61
2022/03/05 09:32:02;;;;;;;25.07;18.23;;;;;;;8.17;45.52;100621.06;5076984;28;20227;-61
2022/03/05 09:34:29;;;;;;;23.57;19.90;;;;;;;9.69;42.56;100621.16;5071567;28;20165;-60
2022/03/05 09:36:54;;;;;;;23.63;19.50;;;;;;;9.49;42.03;100627.16;5069833;28;20311;-61
2022/03/05 09:39:20;;;;;;;24.30;19.67;;;;;;;10.13;41.04;100620.13;5069575;28;20259;-61
2022/03/05 09:41:46;;;;;;;21.67;18.90;;;;;;;10.29;40.64;100615.97;5048936;28;20235;-59
2022/03/05 09:44:11;;;;;;;23.83;19.20;;;;;;;10.44;38.68;100617.06;5071376;28;20263;-61
2022/03/05 09:46:37;;;;;;;24.03;20.20;;;;;;;10.74;38.27;100618.25;5071351;28;20231;-61
2022/03/05 09:49:03;;;;;;;21.17;18.57;;;;;;;9.90;40.69;100628.84;5071156;28;20187;-61
2022/03/05 09:51:30;;;;;;;23.50;18.97;;;;;;;10.67;39.00;100622.88;5050902;28;20315;-60
2022/03/05 09:53:56;;;;;;;22.63;18.93;;;;;;;9.63;40.66;100631.69;5068970;28;20307;-61
2022/03/05 09:56:22;;;;;;;21.67;19.03;;;;;;;9.58;40.15;100633.63;5075247;28;20630;-60
2022/03/05 09:58:49;;;;;;;21.33;19.00;;;;;;;8.94;41.54;100619.94;5073341;28;20169;-61
2022/03/05 10:01:16;;;;;;;23.63;19.70;;;;;;;10.05;38.92;100625.63;5074508;28;20300;-61
2022/03/05 10:03:46;;;;;;;21.77;17.07;;;;;;;9.56;39.03;100618.25;5073596;28;20177;-61
2022/03/05 10:06:18;;;;;;;21.37;17.60;;;;;;;9.64;38.94;100620.53;5073449;28;20584;-61
2022/03/05 10:08:45;;;;;;;20.67;18.47;;;;;;;11.91;35.77;100617.66;5077456;28;20188;-60
2022/03/05 10:11:12;;;;;;;20.03;17.77;;;;;;;11.82;34.86;100612.16;5066964;28;20784;-60
2022/03/05 10:13:39;;;;;;;17.53;15.63;;;;;;;10.93;35.42;100620.81;5073145;28;20665;-60
2022/03/05 10:16:25;;;;;;;22.53;16.50;;;;;;;11.03;34.62;100618.66;5073449;28;20536;-61
2022/03/05 10:18:53;;;;;;;19.20;16.90;;;;;;;11.79;35.47;100611.41;5074492;28;20203;-59
2022/03/05 10:21:18;;;;;;;18.73;16.50;;;;;;;12.27;33.42;100610.69;5055858;28;20220;-60
2022/03/05 10:23:47;;;;;;;16.87;15.17;;;;;;;13.53;30.58;100615.75;5074381;28;20188;-60
2022/03/05 10:26:15;;;;;;;16.77;15.07;;;;;;;12.63;31.44;100611.34;5074382;28;20650;-59
2022/03/05 10:28:40;;;;;;;18.47;15.50;;;;;;;14.01;30.11;100614.66;5072870;28;20326;-61
2022/03/05 10:31:09;;;;;;;17.47;15.57;;;;;;;12.03;32.17;100613.66;5072649;28;20318;-60
2022/03/05 10:33:46;;;;;;;22.10;15.47;;;;;;;11.73;32.40;100606.56;5073160;28;20212;-61
2022/03/05 10:36:25;;;;;;;16.17;14.43;;;;;;;11.21;33.33;100602.31;5073289;28;20172;-61
2022/03/05 10:38:54;;;;;;;16.83;15.13;;;;;;;11.30;33.70;100593.28;5072401;28;20220;-61
2022/03/05 10:41:30;;;;;;;18.20;15.30;;;;;;;9.88;35.49;100603.22;5062889;28;20236;-61
2022/03/05 10:44:08;;;;;;;20.50;15.30;;;;;;;7.94;39.44;100599.69;5068504;28;20211;-60
2022/03/05 10:46:45;;;;;;;17.70;14.50;;;;;;;7.71;40.25;100603.03;5072996;28;20196;-60
2022/03/05 10:49:24;;;;;;;18.37;15.03;;;;;;;6.39;42.63;100606.34;5072361;28;20473;-61
2022/03/05 10:51:53;;;;;;;18.67;14.53;;;;;;;5.63;44.15;100601.56;5063172;28;20316;-61
2022/03/05 10:54:30;;;;;;;18.70;14.83;;;;;;;5.47;45.41;100606.22;5074073;28;20266;-60
2022/03/05 10:57:16;;;;;;;21.67;15.23;;;;;;;5.30;45.11;100605.78;5073042;28;20278;-61
2022/03/05 10:59:44;;;;;;;16.57;12.93;;;;;;;5.16;44.02;100599.31;5073649;28;20558;-60
2022/03/05 11:02:16;;;;;;;21.60;12.67;;;;;;;4.85;45.49;100597.47;5058540;28;20234;-60
2022/03/05 11:04:45;;;;;;;15.50;11.70;;;;;;;4.71;44.79;100589.28;5072455;28;20178;-61
2022/03/05 11:07:12;;;;;;;17.70;12.30;;;;;;;4.80;44.99;100591.66;5069263;28;20292;-62
2022/03/05 11:09:39;;;;;;;18.03;13.50;;;;;;;4.98;45.94;100594.63;5072038;28;20182;-61
2022/03/05 11:12:07;;;;;;;17.67;13.13;;;;;;;5.05;46.42;100597.88;5049759;28;20244;-61